createdAt,value
2023-01-25T00:00:46.456Z,11.93
2023-01-25T00:03:14.233Z,9.10
2023-01-25T00:05:42.050Z,9.93
2023-01-25T00:08:11.084Z,10.40
2023-01-25T00:10:38.868Z,9.97
2023-01-25T00:13:06.695Z,9.80
2023-01-25T00:15:34.449Z,10.47
2023-01-25T00:18:02.143Z,11.20
2023-01-25T00:20:29.850Z,10.73
2023-01-25T00:22:57.530Z,10.70
2023-01-25T00:25:26.623Z,11.53
2023-01-25T00:27:54.297Z,12.13
2023-01-25T00:30:22.227Z,11.43
2023-01-25T00:32:58.835Z,10.43
2023-01-25T00:35:32.507Z,10.37
2023-01-25T00:38:03.469Z,11.47
2023-01-25T00:40:32.601Z,11.63
2023-01-25T00:43:01.699Z,11.47
2023-01-25T00:45:29.562Z,10.77
2023-01-25T00:47:57.660Z,11.63
2023-01-25T00:50:25.394Z,12.00
2023-01-25T00:52:53.097Z,11.80
2023-01-25T00:55:20.850Z,12.63
2023-01-25T00:57:49.892Z,12.10
2023-01-25T01:00:18.405Z,10.77
2023-01-25T01:02:46.137Z,10.67
2023-01-25T01:05:14.006Z,12.03
2023-01-25T01:07:41.750Z,11.43
2023-01-25T01:10:10.329Z,40.17
2023-01-25T01:12:38.124Z,12.40
2023-01-25T01:15:09.310Z,12.20
2023-01-25T01:17:37.192Z,12.23
2023-01-25T01:20:05.459Z,12.80
2023-01-25T01:22:33.162Z,11.43
2023-01-25T01:25:00.919Z,11.47
2023-01-25T01:27:28.775Z,13.37
2023-01-25T01:29:56.498Z,11.40
2023-01-25T01:32:25.785Z,12.00
2023-01-25T01:34:53.621Z,12.53
2023-01-25T01:37:21.356Z,11.63
2023-01-25T01:39:49.128Z,12.10
2023-01-25T01:42:16.846Z,11.20
2023-01-25T01:44:47.807Z,12.50
2023-01-25T01:47:21.045Z,12.40
2023-01-25T01:49:54.081Z,11.33
2023-01-25T01:52:25.929Z,12.07
2023-01-25T01:54:58.322Z,13.37
2023-01-25T01:57:31.359Z,12.97
2023-01-25T02:00:03.956Z,12.23
2023-01-25T02:02:31.817Z,13.10
2023-01-25T02:05:06.219Z,12.40
2023-01-25T02:07:35.714Z,12.13
2023-01-25T02:10:04.659Z,12.93
2023-01-25T02:12:32.988Z,12.67
2023-01-25T02:15:00.810Z,13.10
2023-01-25T02:17:31.049Z,12.53
2023-01-25T02:20:04.841Z,13.20
2023-01-25T02:22:39.130Z,12.57
2023-01-25T02:25:10.226Z,13.13
2023-01-25T02:27:43.439Z,13.43
2023-01-25T02:30:12.001Z,12.70
2023-01-25T02:32:39.756Z,13.33
2023-01-25T02:35:09.183Z,13.00
2023-01-25T02:37:37.521Z,14.13
2023-01-25T02:40:06.736Z,12.70
2023-01-25T02:42:36.099Z,13.27
2023-01-25T02:45:07.220Z,12.47
2023-01-25T02:47:35.218Z,12.60
2023-01-25T02:50:03.110Z,12.73
2023-01-25T02:52:30.866Z,13.03
2023-01-25T02:54:58.606Z,13.27
2023-01-25T02:57:26.318Z,13.10
2023-01-25T02:59:55.510Z,13.47
2023-01-25T03:02:23.235Z,12.90
2023-01-25T03:04:51.211Z,12.70
2023-01-25T03:07:19.273Z,14.00
2023-01-25T03:09:47.205Z,14.23
2023-01-25T03:12:14.946Z,13.43
2023-01-25T03:14:44.337Z,14.27
2023-01-25T03:17:13.515Z,14.67
2023-01-25T03:19:41.279Z,14.23
2023-01-25T03:22:09.693Z,15.90
2023-01-25T03:24:38.009Z,13.47
2023-01-25T03:27:13.215Z,13.57
2023-01-25T03:29:42.201Z,14.20
2023-01-25T03:32:10.513Z,14.17
2023-01-25T03:34:39.815Z,14.47
2023-01-25T03:37:07.529Z,13.73
2023-01-25T03:39:35.283Z,14.90
2023-01-25T03:42:03.254Z,15.87
2023-01-25T03:44:31.027Z,14.30
2023-01-25T03:46:58.953Z,15.17
2023-01-25T03:49:27.904Z,15.33
2023-01-25T03:51:57.979Z,13.90
2023-01-25T03:54:25.922Z,15.90
2023-01-25T03:56:53.615Z,14.43
2023-01-25T03:59:21.362Z,12.20
2023-01-25T04:01:49.614Z,9.87
2023-01-25T04:04:17.524Z,13.67
2023-01-25T04:06:45.465Z,13.00
2023-01-25T04:09:14.806Z,10.97
2023-01-25T04:11:42.847Z,11.10
2023-01-25T04:14:11.807Z,9.27
2023-01-25T04:16:39.573Z,8.67
2023-01-25T04:19:07.470Z,9.77
2023-01-25T04:21:35.244Z,9.63
2023-01-25T04:24:03.127Z,11.03
2023-01-25T04:26:32.242Z,10.07
2023-01-25T04:29:00.003Z,15.13
2023-01-25T04:31:27.901Z,14.50
2023-01-25T04:33:56.905Z,14.17
2023-01-25T04:36:24.700Z,13.53
2023-01-25T04:38:52.489Z,10.83
2023-01-25T04:41:20.329Z,11.50
2023-01-25T04:43:49.597Z,11.00
2023-01-25T04:46:17.540Z,10.07
2023-01-25T04:48:45.304Z,10.37
2023-01-25T04:51:14.334Z,10.13
2023-01-25T04:53:42.137Z,11.10
2023-01-25T04:56:11.321Z,10.13
2023-01-25T04:58:39.011Z,10.00
2023-01-25T05:01:08.393Z,9.70
2023-01-25T05:03:36.138Z,8.80
2023-01-25T05:06:03.859Z,9.80
2023-01-25T05:08:31.635Z,9.07
2023-01-25T05:10:59.349Z,9.80
2023-01-25T05:13:27.084Z,8.60
2023-01-25T05:15:58.980Z,8.53
2023-01-25T05:18:33.204Z,8.90
2023-01-25T05:21:27.074Z,7.27
2023-01-25T05:23:55.075Z,8.70
2023-01-25T05:26:36.737Z,9.20
2023-01-25T05:29:04.499Z,8.57
2023-01-25T05:31:32.207Z,9.40
2023-01-25T05:34:01.344Z,9.57
2023-01-25T05:36:29.126Z,10.27
2023-01-25T05:38:56.838Z,9.40
2023-01-25T05:41:24.687Z,9.03
2023-01-25T05:43:52.386Z,9.50
2023-01-25T05:46:20.294Z,8.90
2023-01-25T05:48:49.180Z,8.63
2023-01-25T05:51:18.284Z,9.33
2023-01-25T05:53:46.484Z,21.80
2023-01-25T05:56:14.475Z,8.53
2023-01-25T05:58:42.330Z,8.27
2023-01-25T06:01:10.094Z,8.17
2023-01-25T06:03:38.064Z,8.30
2023-01-25T06:06:06.532Z,7.70
2023-01-25T06:08:36.731Z,9.20
2023-01-25T06:11:08.238Z,8.77
2023-01-25T06:13:36.279Z,8.30
2023-01-25T06:16:04.617Z,8.13
2023-01-25T06:18:34.768Z,8.20
2023-01-25T06:21:03.920Z,8.20
2023-01-25T06:23:32.023Z,8.50
2023-01-25T06:26:02.726Z,8.57
2023-01-25T06:28:32.795Z,9.43
2023-01-25T06:31:06.145Z,8.67
2023-01-25T06:33:34.397Z,8.47
2023-01-25T06:36:03.415Z,9.27
2023-01-25T06:38:31.918Z,10.33
2023-01-25T06:41:05.647Z,8.47
2023-01-25T06:43:35.058Z,8.60
2023-01-25T06:46:05.398Z,8.47
2023-01-25T06:48:33.978Z,8.03
2023-01-25T06:51:03.938Z,7.57
2023-01-25T06:53:34.613Z,7.90
2023-01-25T06:56:05.904Z,8.00
2023-01-25T06:58:34.527Z,8.80
2023-01-25T07:01:04.061Z,8.60
2023-01-25T07:03:32.844Z,8.80
2023-01-25T07:06:01.306Z,9.47
2023-01-25T07:08:29.447Z,7.70
2023-01-25T07:10:57.987Z,10.13
2023-01-25T07:13:28.443Z,10.00
2023-01-25T07:15:57.600Z,9.77
2023-01-25T07:18:26.335Z,8.43
2023-01-25T07:20:54.417Z,8.90
2023-01-25T07:23:22.130Z,9.03
2023-01-25T07:25:51.517Z,9.37
2023-01-25T07:28:19.300Z,10.10
2023-01-25T07:30:49.215Z,11.47
2023-01-25T07:33:16.960Z,11.70
2023-01-25T07:35:44.865Z,11.80
2023-01-25T07:38:13.944Z,14.70
2023-01-25T07:40:42.973Z,13.20
2023-01-25T07:43:10.710Z,12.03
2023-01-25T07:45:38.628Z,12.63
2023-01-25T07:48:11.838Z,14.10
2023-01-25T07:50:41.399Z,11.63
2023-01-25T07:53:09.457Z,13.33
2023-01-25T07:55:37.339Z,12.80
2023-01-25T07:58:05.071Z,12.83
2023-01-25T08:00:32.908Z,13.73
2023-01-25T08:03:00.598Z,13.40
2023-01-25T08:05:29.911Z,15.10
2023-01-25T08:07:57.718Z,15.93
2023-01-25T08:10:25.624Z,14.17
2023-01-25T08:12:53.395Z,15.57
2023-01-25T08:15:21.314Z,15.60
2023-01-25T08:17:49.062Z,16.63
2023-01-25T08:20:17.298Z,15.80
2023-01-25T08:22:46.410Z,16.53
2023-01-25T08:25:14.201Z,16.60
2023-01-25T08:27:57.164Z,16.77
2023-01-25T08:30:24.916Z,15.47
2023-01-25T08:32:52.658Z,17.47
2023-01-25T08:35:20.490Z,16.07
2023-01-25T08:37:49.636Z,15.60
2023-01-25T08:40:17.936Z,16.60
2023-01-25T08:42:45.731Z,14.17
2023-01-25T08:45:13.577Z,16.13
2023-01-25T08:47:41.282Z,15.83
2023-01-25T08:50:10.459Z,15.60
2023-01-25T08:52:38.401Z,16.13
2023-01-25T08:55:08.342Z,16.57
2023-01-25T08:57:36.155Z,16.53
2023-01-25T09:00:05.580Z,14.53
2023-01-25T09:02:33.939Z,15.03
2023-01-25T09:05:01.759Z,13.20
2023-01-25T09:07:32.281Z,14.07
2023-01-25T09:10:00.644Z,14.03
2023-01-25T09:12:29.768Z,14.90
2023-01-25T09:14:57.643Z,18.13
2023-01-25T09:17:25.421Z,14.10
2023-01-25T09:19:53.175Z,14.60
2023-01-25T09:22:20.982Z,13.87
2023-01-25T09:24:54.479Z,14.37
2023-01-25T09:27:22.246Z,15.03
2023-01-25T09:30:01.362Z,12.57
2023-01-25T09:32:30.206Z,13.37
2023-01-25T09:34:58.087Z,14.40
2023-01-25T09:37:25.847Z,14.07
2023-01-25T09:39:53.664Z,15.00
2023-01-25T09:42:39.589Z,13.77
2023-01-25T09:45:25.778Z,14.03
2023-01-25T09:48:00.415Z,13.93
2023-01-25T09:50:37.339Z,14.37
2023-01-25T09:53:22.774Z,12.70
2023-01-25T09:55:54.264Z,16.40
2023-01-25T09:58:27.133Z,12.57
2023-01-25T10:01:14.100Z,13.00
2023-01-25T10:03:49.424Z,12.30
2023-01-25T10:06:18.963Z,12.03
2023-01-25T10:08:56.753Z,13.30
2023-01-25T10:11:27.718Z,12.73
2023-01-25T10:13:56.985Z,12.93
2023-01-25T10:16:32.897Z,14.73
2023-01-25T10:19:21.968Z,12.53
2023-01-25T10:21:54.731Z,12.57
2023-01-25T10:25:05.902Z,12.37
2023-01-25T10:27:41.402Z,12.97
2023-01-25T10:30:28.409Z,12.93
2023-01-25T10:33:01.584Z,13.43
2023-01-25T10:35:39.062Z,12.47
2023-01-25T10:38:17.289Z,12.90
2023-01-25T10:40:49.692Z,13.70
2023-01-25T10:43:21.032Z,12.33
2023-01-25T10:45:50.242Z,12.53
2023-01-25T10:48:22.448Z,13.03
2023-01-25T10:50:54.085Z,14.17
2023-01-25T10:53:27.902Z,14.50
2023-01-25T10:56:19.297Z,13.70
2023-01-25T10:58:48.718Z,12.10
2023-01-25T11:01:27.997Z,13.27
2023-01-25T11:03:57.673Z,12.23
2023-01-25T11:06:36.794Z,14.10
2023-01-25T11:09:31.837Z,14.53
2023-01-25T11:12:01.614Z,15.33
2023-01-25T11:14:31.241Z,14.13
2023-01-25T11:17:01.433Z,13.87
2023-01-25T11:19:35.256Z,15.93
2023-01-25T11:22:04.824Z,14.87
2023-01-25T11:24:34.598Z,15.57
2023-01-25T11:27:19.715Z,15.87
2023-01-25T11:29:49.084Z,15.43
2023-01-25T11:32:28.255Z,15.10
2023-01-25T11:34:57.508Z,30.20
2023-01-25T11:37:45.529Z,15.53
2023-01-25T11:40:20.895Z,15.57
2023-01-25T11:43:00.003Z,17.10
2023-01-25T11:46:01.665Z,15.77
2023-01-25T11:48:46.222Z,16.47
2023-01-25T11:51:25.054Z,14.83
2023-01-25T11:54:07.502Z,15.07
2023-01-25T11:56:49.994Z,19.73
2023-01-25T11:59:37.780Z,16.97
2023-01-25T12:02:20.568Z,17.07
2023-01-25T12:05:09.713Z,22.57
2023-01-25T12:07:59.068Z,17.87
2023-01-25T12:10:40.556Z,18.13
2023-01-25T12:13:18.959Z,18.37
2023-01-25T12:16:07.566Z,17.93
2023-01-25T12:19:08.227Z,18.43
2023-01-25T12:21:53.543Z,18.47
2023-01-25T12:24:38.569Z,18.03
2023-01-25T12:27:20.559Z,17.93
2023-01-25T12:29:56.652Z,18.23
2023-01-25T12:32:29.414Z,18.80
2023-01-25T12:35:14.510Z,17.13
2023-01-25T12:37:46.264Z,16.80
2023-01-25T12:40:19.566Z,17.53
2023-01-25T12:42:53.219Z,19.23
2023-01-25T12:45:26.523Z,17.27
2023-01-25T12:47:59.102Z,17.40
2023-01-25T12:50:35.077Z,18.13
2023-01-25T12:53:08.125Z,19.03
2023-01-25T12:55:37.777Z,19.07
2023-01-25T12:58:18.225Z,17.80
2023-01-25T13:00:56.864Z,17.17
2023-01-25T13:03:31.610Z,17.27
2023-01-25T13:06:07.921Z,17.03
2023-01-25T13:08:43.364Z,15.50
2023-01-25T13:11:17.765Z,12.90
2023-01-25T13:13:45.643Z,14.70
2023-01-25T13:16:43.256Z,16.73
2023-01-25T13:19:22.044Z,14.90
2023-01-25T13:21:52.855Z,15.03
2023-01-25T13:24:24.644Z,15.13
2023-01-25T13:27:05.907Z,14.33
2023-01-25T13:29:59.027Z,14.63
2023-01-25T13:33:03.727Z,14.70
2023-01-25T13:35:43.075Z,15.97
2023-01-25T13:38:30.802Z,14.67
2023-01-25T13:41:17.288Z,15.53
2023-01-25T13:43:49.617Z,15.00
2023-01-25T13:46:24.266Z,15.10
2023-01-25T13:49:18.564Z,14.13
2023-01-25T13:51:46.516Z,14.70
2023-01-25T13:54:17.504Z,13.80
2023-01-25T13:56:48.354Z,13.13
2023-01-25T13:59:29.004Z,14.43
2023-01-25T14:01:58.529Z,12.57
2023-01-25T14:04:26.790Z,13.50
2023-01-25T14:06:58.633Z,13.97
2023-01-25T14:09:26.534Z,14.17
2023-01-25T14:11:57.113Z,13.03
2023-01-25T14:14:29.641Z,14.17
2023-01-25T14:17:18.428Z,14.73
2023-01-25T14:19:49.969Z,15.73
2023-01-25T14:22:27.050Z,14.63
2023-01-25T14:25:08.279Z,14.47
2023-01-25T14:27:38.075Z,14.70
2023-01-25T14:30:17.984Z,12.87
2023-01-25T14:32:46.051Z,14.77
2023-01-25T14:35:43.516Z,16.30
2023-01-25T14:38:30.275Z,15.93
2023-01-25T14:41:08.490Z,15.63
2023-01-25T14:43:38.439Z,15.23
2023-01-25T14:46:22.079Z,17.70
2023-01-25T14:48:49.981Z,15.20
2023-01-25T14:51:24.794Z,15.07
2023-01-25T14:53:58.926Z,19.60
2023-01-25T14:56:42.679Z,15.57
2023-01-25T14:59:26.096Z,14.03
2023-01-25T15:01:57.847Z,15.50
2023-01-25T15:04:26.487Z,15.93
2023-01-25T15:06:59.083Z,16.53
2023-01-25T15:09:42.336Z,18.53
2023-01-25T15:12:30.124Z,14.53
2023-01-25T15:15:00.174Z,16.07
2023-01-25T15:17:40.520Z,16.03
2023-01-25T15:20:28.139Z,14.33
2023-01-25T15:22:57.514Z,15.17
2023-01-25T15:25:25.618Z,15.53
2023-01-25T15:27:56.691Z,14.90
2023-01-25T15:30:24.472Z,14.83
2023-01-25T15:32:53.705Z,14.40
2023-01-25T15:35:23.414Z,12.93
2023-01-25T15:37:51.438Z,14.73
2023-01-25T15:40:19.563Z,12.37
2023-01-25T15:42:47.371Z,14.23
2023-01-25T15:45:15.264Z,12.97
2023-01-25T15:47:43.052Z,13.10
2023-01-25T15:50:19.327Z,14.10
2023-01-25T15:52:48.299Z,12.87
2023-01-25T15:55:18.337Z,13.43
2023-01-25T15:57:46.945Z,12.77
2023-01-25T16:00:21.407Z,10.60
2023-01-25T16:02:49.110Z,13.10
2023-01-25T16:05:18.357Z,11.47
2023-01-25T16:07:46.732Z,12.63
2023-01-25T16:10:24.786Z,11.33
2023-01-25T16:12:52.641Z,12.57
2023-01-25T16:15:21.550Z,12.53
2023-01-25T16:17:49.310Z,12.47
2023-01-25T16:20:22.833Z,12.03
2023-01-25T16:22:53.560Z,12.27
2023-01-25T16:25:21.590Z,12.70
2023-01-25T16:27:49.893Z,12.33
2023-01-25T16:30:21.791Z,12.83
2023-01-25T16:32:52.453Z,11.33
2023-01-25T16:35:21.823Z,12.57
2023-01-25T16:37:50.712Z,12.70
2023-01-25T16:40:29.912Z,12.83
2023-01-25T16:42:57.814Z,12.57
2023-01-25T16:45:25.823Z,11.60
2023-01-25T16:47:53.731Z,11.33
2023-01-25T16:50:24.316Z,11.23
2023-01-25T16:52:53.173Z,12.33
2023-01-25T16:55:20.982Z,13.00
2023-01-25T16:57:52.244Z,13.23
2023-01-25T17:00:24.965Z,11.90
2023-01-25T17:02:59.234Z,13.73
2023-01-25T17:05:32.858Z,12.53
2023-01-25T17:08:00.708Z,12.37
2023-01-25T17:10:29.713Z,12.43
2023-01-25T17:12:57.490Z,14.10
2023-01-25T17:15:25.200Z,11.00
2023-01-25T17:17:52.930Z,12.77
2023-01-25T17:20:20.689Z,12.53
2023-01-25T17:22:51.247Z,9.90
2023-01-25T17:25:19.395Z,10.03
2023-01-25T17:27:47.420Z,11.93
2023-01-25T17:30:15.775Z,12.43
2023-01-25T17:32:43.550Z,11.80
2023-01-25T17:35:11.326Z,11.50
2023-01-25T17:37:41.038Z,11.93
2023-01-25T17:40:12.714Z,12.67
2023-01-25T17:42:40.639Z,12.27
2023-01-25T17:45:09.826Z,13.73
2023-01-25T17:47:37.805Z,13.30
2023-01-25T17:50:06.196Z,12.00
2023-01-25T17:52:33.926Z,13.77
2023-01-25T17:55:02.002Z,12.90
2023-01-25T17:57:31.504Z,12.17
2023-01-25T17:59:59.426Z,11.37
2023-01-25T18:02:27.487Z,12.80
2023-01-25T18:04:55.387Z,11.27
2023-01-25T18:07:23.126Z,10.40
2023-01-25T18:09:50.880Z,14.90
2023-01-25T18:12:22.939Z,12.80
2023-01-25T18:14:52.391Z,12.00
2023-01-25T18:17:20.162Z,12.43
2023-01-25T18:19:48.974Z,12.57
2023-01-25T18:22:16.808Z,14.23
2023-01-25T18:24:45.199Z,14.20
2023-01-25T18:27:19.675Z,12.50
2023-01-25T18:29:55.441Z,13.00
2023-01-25T18:32:23.672Z,12.60
2023-01-25T18:34:51.515Z,12.67
2023-01-25T18:37:20.670Z,13.33
2023-01-25T18:39:50.081Z,24.80
2023-01-25T18:42:18.546Z,12.03
2023-01-25T18:44:48.549Z,11.37
2023-01-25T18:47:20.048Z,18.57
2023-01-25T18:49:49.262Z,11.87
2023-01-25T18:52:18.233Z,11.50
2023-01-25T18:54:46.605Z,10.73
2023-01-25T18:57:15.081Z,12.33
2023-01-25T18:59:42.925Z,11.30
2023-01-25T19:02:12.589Z,11.20
2023-01-25T19:04:42.387Z,12.47
2023-01-25T19:07:10.431Z,11.57
2023-01-25T19:09:38.619Z,11.87
2023-01-25T19:12:07.380Z,11.23
2023-01-25T19:14:35.524Z,10.80
2023-01-25T19:17:03.395Z,10.60
2023-01-25T19:19:33.600Z,10.97
2023-01-25T19:22:02.956Z,10.97
2023-01-25T19:24:31.060Z,10.67
2023-01-25T19:26:58.915Z,12.20
2023-01-25T19:29:26.790Z,11.20
2023-01-25T19:31:54.780Z,11.13
2023-01-25T19:34:22.730Z,10.67
2023-01-25T19:36:50.627Z,10.63
2023-01-25T19:39:19.778Z,10.63
2023-01-25T19:41:47.819Z,10.90
2023-01-25T19:44:16.201Z,10.90
2023-01-25T19:46:44.134Z,11.40
2023-01-25T19:49:13.235Z,11.87
2023-01-25T19:51:45.528Z,11.50
2023-01-25T19:54:16.827Z,11.00
2023-01-25T19:56:48.085Z,10.73
2023-01-25T19:59:17.704Z,11.43
2023-01-25T20:01:46.258Z,11.47
2023-01-25T20:04:16.270Z,12.07
2023-01-25T20:06:44.398Z,11.07
2023-01-25T20:09:14.162Z,10.47
2023-01-25T20:11:42.632Z,11.63
2023-01-25T20:14:14.324Z,12.27
2023-01-25T20:16:42.601Z,13.10
2023-01-25T20:19:12.880Z,11.33
2023-01-25T20:21:43.922Z,10.70
2023-01-25T20:24:11.673Z,11.77
2023-01-25T20:26:43.113Z,11.70
2023-01-25T20:29:13.537Z,8.97
2023-01-25T20:31:43.659Z,11.50
2023-01-25T20:34:14.135Z,10.17
2023-01-25T20:36:43.653Z,11.67
2023-01-25T20:39:14.113Z,11.23
2023-01-25T20:41:42.607Z,11.23
2023-01-25T20:44:13.957Z,10.43
2023-01-25T20:46:46.187Z,11.43
2023-01-25T20:49:16.259Z,11.07
2023-01-25T20:51:44.328Z,10.07
2023-01-25T20:54:12.863Z,11.27
2023-01-25T20:56:40.784Z,11.70
2023-01-25T20:59:08.697Z,9.80
2023-01-25T21:01:38.028Z,12.03
2023-01-25T21:04:07.607Z,10.73
2023-01-25T21:06:35.977Z,10.20
2023-01-25T21:09:04.376Z,11.27
2023-01-25T21:11:32.587Z,11.00
2023-01-25T21:14:00.331Z,14.80
2023-01-25T21:16:28.531Z,12.30
2023-01-25T21:18:59.364Z,10.77
2023-01-25T21:21:28.924Z,12.53
2023-01-25T21:24:02.474Z,11.80
2023-01-25T21:26:31.920Z,11.00
2023-01-25T21:29:00.911Z,10.10
2023-01-25T21:31:30.860Z,10.13
2023-01-25T21:34:00.650Z,10.73
2023-01-25T21:36:29.196Z,9.73
2023-01-25T21:38:58.061Z,10.00
2023-01-25T21:41:29.391Z,11.53
2023-01-25T21:44:17.372Z,11.23
2023-01-25T21:47:04.186Z,11.10
2023-01-25T21:49:52.734Z,10.57
2023-01-25T21:52:20.594Z,10.30
2023-01-25T21:54:48.788Z,11.80
2023-01-25T21:57:16.593Z,11.00
2023-01-25T21:59:44.405Z,11.00
2023-01-25T22:02:14.797Z,14.87
2023-01-25T22:04:44.097Z,10.93
2023-01-25T22:07:12.015Z,9.30
2023-01-25T22:09:40.073Z,9.07
2023-01-25T22:12:07.942Z,10.73
2023-01-25T22:14:36.567Z,9.30
2023-01-25T22:17:05.009Z,10.20
2023-01-25T22:19:33.522Z,8.87
2023-01-25T22:22:02.714Z,9.00
2023-01-25T22:24:30.800Z,9.97
2023-01-25T22:27:05.512Z,10.03
2023-01-25T22:29:34.342Z,10.13
2023-01-25T22:32:02.549Z,10.47
2023-01-25T22:34:30.415Z,9.50
2023-01-25T22:36:58.171Z,10.50
2023-01-25T22:39:27.295Z,10.70
2023-01-25T22:41:55.798Z,10.53
2023-01-25T22:44:23.657Z,10.83
2023-01-25T22:46:52.923Z,9.33
2023-01-25T22:49:20.822Z,10.47
2023-01-25T22:51:48.805Z,11.57
2023-01-25T22:54:16.683Z,10.27
2023-01-25T22:56:45.776Z,11.07
2023-01-25T22:59:14.797Z,9.73
2023-01-25T23:01:42.633Z,9.23
2023-01-25T23:04:13.234Z,12.27
2023-01-25T23:06:41.131Z,11.30
2023-01-25T23:09:08.995Z,9.60
2023-01-25T23:11:40.066Z,10.33
2023-01-25T23:14:29.761Z,10.17
2023-01-25T23:17:17.798Z,11.17
2023-01-25T23:19:44.832Z,8.87
2023-01-25T23:22:15.928Z,10.57
2023-01-25T23:24:44.565Z,10.30
2023-01-25T23:27:13.737Z,10.50
2023-01-25T23:29:44.655Z,9.73
2023-01-25T23:32:12.478Z,10.13
2023-01-25T23:34:40.716Z,10.03
2023-01-25T23:37:08.637Z,10.33
2023-01-25T23:39:36.680Z,9.23
2023-01-25T23:42:04.394Z,11.73
2023-01-25T23:44:32.227Z,9.77
2023-01-25T23:47:01.588Z,9.73
2023-01-25T23:49:29.403Z,10.90
2023-01-25T23:51:57.097Z,11.57
2023-01-25T23:54:26.853Z,11.95
2023-01-25T23:56:55.185Z,12.45
2023-01-25T23:59:23.034Z,9.87
